sensor_id;sensor_type;location;lat;lon;timestamp;pressure;altitude;pressure_sealevel;temperature;humidity
32789;BME280;19141;48.980;8.410;2023-04-12T04:22:32;99261.94;;;7.98;100.00
32789;BME280;19141;48.980;8.410;2023-04-12T04:25:00;99256.25;;;8.01;100.00
32789;BME280;19141;48.980;8.410;2023-04-12T04:27:29;99251.59;;;8.03;100.00
32789;BME280;19141;48.980;8.410;2023-04-12T04:29:59;99247.75;;;8.05;100.00
32789;BME280;19141;48.980;8.410;2023-04-12T04:32:27;99228.66;;;8.10;100.00
32789;BME280;19141;48.980;8.410;2023-04-12T04:34:55;99230.84;;;8.06;100.00
32789;BME280;19141;48.980;8.410;2023-04-12T04:37:25;99234.31;;;8.07;100.00
32789;BME280;19141;48.980;8.410;2023-04-12T04:39:51;99241.53;;;8.13;100.00
32789;BME280;19141;48.980;8.410;2023-04-12T04:42:17;99233.59;;;8.13;100.00
32789;BME280;19141;48.980;8.410;2023-04-12T04:44:54;99233.69;;;8.20;100.00
32789;BME280;19141;48.980;8.410;2023-04-12T04:47:29;99232.66;;;8.21;100.00
32789;BME280;19141;48.980;8.410;2023-04-12T04:49:55;99243.13;;;8.22;100.00
32789;BME280;19141;48.980;8.410;2023-04-12T04:52:25;99237.34;;;8.19;100.00
32789;BME280;19141;48.980;8.410;2023-04-12T04:54:55;99228.66;;;8.25;100.00
32789;BME280;19141;48.980;8.410;2023-04-12T04:57:24;99223.88;;;8.20;100.00
32789;BME280;19141;48.980;8.410;2023-04-12T04:59:53;99222.53;;;8.24;100.00
32789;BME280;19141;48.980;8.410;2023-04-12T05:02:18;99221.91;;;8.22;100.00
32789;BME280;19141;48.980;8.410;2023-04-12T05:04:44;99225.72;;;8.20;100.00
32789;BME280;19141;48.980;8.410;2023-04-12T05:07:12;99220.41;;;8.20;100.00
32789;BME280;19141;48.980;8.410;2023-04-12T05:09:40;99222.53;;;8.24;100.00
32789;BME280;19141;48.980;8.410;2023-04-12T05:12:06;99216.41;;;8.24;100.00
32789;BME280;19141;48.980;8.410;2023-04-12T05:14:31;99203.69;;;8.19;100.00
32789;BME280;19141;48.980;8.410;2023-04-12T05:16:57;99204.31;;;8.21;100.00
32789;BME280;19141;48.980;8.410;2023-04-12T05:19:22;99203.13;;;8.24;100.00
32789;BME280;19141;48.980;8.410;2023-04-12T05:21:48;99201.13;;;8.26;100.00
32789;BME280;19141;48.980;8.410;2023-04-12T05:24:13;99188.94;;;8.31;100.00
32789;BME280;19141;48.980;8.410;2023-04-12T05:26:40;99187.84;;;8.26;100.00
32789;BME280;19141;48.980;8.410;2023-04-12T05:29:11;99177.81;;;8.36;100.00
32789;BME280;19141;48.980;8.410;2023-04-12T05:31:37;99171.13;;;8.40;100.00
32789;BME280;19141;48.980;8.410;2023-04-12T05:34:06;99167.91;;;8.45;100.00
32789;BME280;19141;48.980;8.410;2023-04-12T05:36:35;99159.94;;;8.45;100.00
32789;BME280;19141;48.980;8.410;2023-04-12T05:39:02;99147.16;;;8.48;100.00
32789;BME280;19141;48.980;8.410;2023-04-12T05:41:30;99138.59;;;8.53;100.00
32789;BME280;19141;48.980;8.410;2023-04-12T05:43:55;99137.44;;;8.55;100.00
32789;BME280;19141;48.980;8.410;2023-04-12T05:46:22;99132.94;;;8.56;100.00
32789;BME280;19141;48.980;8.410;2023-04-12T05:48:49;99127.63;;;8.56;100.00
32789;BME280;19141;48.980;8.410;2023-04-12T05:51:14;99126.22;;;8.60;100.00
32789;BME280;19141;48.980;8.410;2023-04-12T05:53:41;99128.72;;;8.61;100.00
32789;BME280;19141;48.980;8.410;2023-04-12T05:56:07;99121.19;;;8.65;100.00
32789;BME280;19141;48.980;8.410;2023-04-12T05:58:33;99121.38;;;8.63;100.00
32789;BME280;19141;48.980;8.410;2023-04-12T06:00:59;99112.94;;;8.60;100.00
32789;BME280;19141;48.980;8.410;2023-04-12T06:03:25;99113.84;;;8.67;100.00
32789;BME280;19141;48.980;8.410;2023-04-12T06:05:53;99118.53;;;8.65;100.00
32789;BME280;19141;48.980;8.410;2023-04-12T06:08:19;99098.38;;;8.70;100.00
32789;BME280;19141;48.980;8.410;2023-04-12T06:10:44;99096.53;;;8.71;100.00
32789;BME280;19141;48.980;8.410;2023-04-12T06:13:11;99095.16;;;8.75;100.00
32789;BME280;19141;48.980;8.410;2023-04-12T06:15:40;99091.84;;;8.73;100.00
32789;BME280;19141;48.980;8.410;2023-04-12T06:18:06;99088.22;;;8.74;100.00
32789;BME280;19141;48.980;8.410;2023-04-12T06:20:31;99082.25;;;8.72;100.00
32789;BME280;19141;48.980;8.410;2023-04-12T06:22:57;99079.84;;;8.77;100.00
32789;BME280;19141;48.980;8.410;2023-04-12T06:25:23;99077.06;;;8.85;100.00
32789;BME280;19141;48.980;8.410;2023-04-12T06:27:51;99069.09;;;8.85;100.00
32789;BME280;19141;48.980;8.410;2023-04-12T06:30:18;99064.84;;;8.91;100.00
32789;BME280;19141;48.980;8.410;2023-04-12T06:32:44;99058.78;;;8.97;100.00
32789;BME280;19141;48.980;8.410;2023-04-12T06:35:10;99054.16;;;9.06;100.00
32789;BME280;19141;48.980;8.410;2023-04-12T06:37:36;99042.34;;;9.08;100.00
32789;BME280;19141;48.980;8.410;2023-04-12T06:40:02;99035.44;;;9.14;100.00
32789;BME280;19141;48.980;8.410;2023-04-12T06:42:27;99035.66;;;9.19;100.00
32789;BME280;19141;48.980;8.410;2023-04-12T06:44:54;99021.19;;;9.21;100.00
32789;BME280;19141;48.980;8.410;2023-04-12T06:47:19;99021.44;;;9.27;100.00
32789;BME280;19141;48.980;8.410;2023-04-12T06:49:46;99012.03;;;9.31;100.00
32789;BME280;19141;48.980;8.410;2023-04-12T06:52:12;99007.41;;;9.39;100.00
32789;BME280;19141;48.980;8.410;2023-04-12T06:54:38;99008.00;;;9.41;100.00
32789;BME280;19141;48.980;8.410;2023-04-12T06:57:07;99007.66;;;9.51;100.00
32789;BME280;19141;48.980;8.410;2023-04-12T06:59:33;99004.81;;;9.52;100.00
32789;BME280;19141;48.980;8.410;2023-04-12T07:01:58;99000.13;;;9.55;100.00
32789;BME280;19141;48.980;8.410;2023-04-12T07:04:23;98994.59;;;9.56;100.00
32789;BME280;19141;48.980;8.410;2023-04-12T07:06:49;98986.25;;;9.59;100.00
32789;BME280;19141;48.980;8.410;2023-04-12T07:09:14;98989.91;;;9.65;100.00
32789;BME280;19141;48.980;8.410;2023-04-12T07:11:40;98981.38;;;9.76;100.00
32789;BME280;19141;48.980;8.410;2023-04-12T07:14:05;98979.75;;;9.75;100.00
32789;BME280;19141;48.980;8.410;2023-04-12T07:16:31;98980.81;;;9.81;100.00
32789;BME280;19141;48.980;8.410;2023-04-12T07:18:57;98958.91;;;9.78;100.00
32789;BME280;19141;48.980;8.410;2023-04-12T07:21:23;98954.00;;;9.82;100.00
32789;BME280;19141;48.980;8.410;2023-04-12T07:23:48;98942.97;;;9.85;100.00
32789;BME280;19141;48.980;8.410;2023-04-12T07:26:16;98935.59;;;9.87;100.00
32789;BME280;19141;48.980;8.410;2023-04-12T07:28:42;98928.69;;;9.93;100.00
32789;BME280;19141;48.980;8.410;2023-04-12T07:31:08;98923.75;;;9.96;100.00
32789;BME280;19141;48.980;8.410;2023-04-12T07:33:33;98910.88;;;10.00;100.00
32789;BME280;19141;48.980;8.410;2023-04-12T07:36:01;98904.13;;;10.04;100.00
32789;BME280;19141;48.980;8.410;2023-04-12T07:38:26;98890.84;;;10.11;100.00
32789;BME280;19141;48.980;8.410;2023-04-12T07:40:53;98893.31;;;10.12;100.00
32789;BME280;19141;48.980;8.410;2023-04-12T07:43:19;98892.69;;;10.17;100.00
32789;BME280;19141;48.980;8.410;2023-04-12T07:45:44;98888.03;;;10.25;100.00
32789;BME280;19141;48.980;8.410;2023-04-12T07:48:10;98895.19;;;10.31;100.00
32789;BME280;19141;48.980;8.410;2023-04-12T07:50:36;98896.41;;;10.36;100.00
32789;BME280;19141;48.980;8.410;2023-04-12T07:53:21;98897.44;;;10.41;100.00
32789;BME280;19141;48.980;8.410;2023-04-12T07:55:48;98897.03;;;10.38;100.00
32789;BME280;19141;48.980;8.410;2023-04-12T07:58:14;98896.63;;;10.41;100.00
32789;BME280;19141;48.980;8.410;2023-04-12T08:00:40;98908.28;;;10.46;100.00
32789;BME280;19141;48.980;8.410;2023-04-12T08:03:05;98913.03;;;10.51;100.00
32789;BME280;19141;48.980;8.410;2023-04-12T08:05:31;98910.34;;;10.57;100.00
32789;BME280;19141;48.980;8.410;2023-04-12T08:07:56;98908.72;;;10.63;100.00
32789;BME280;19141;48.980;8.410;2023-04-12T08:10:21;98911.38;;;10.70;100.00
32789;BME280;19141;48.980;8.410;2023-04-12T08:12:47;98891.28;;;10.67;100.00
32789;BME280;19141;48.980;8.410;2023-04-12T08:15:12;98874.69;;;10.65;100.00
32789;BME280;19141;48.980;8.410;2023-04-12T08:17:38;98879.81;;;10.67;100.00
32789;BME280;19141;48.980;8.410;2023-04-12T08:20:04;98875.09;;;10.75;100.00
32789;BME280;19141;48.980;8.410;2023-04-12T08:22:29;98878.38;;;10.84;100.00
32789;BME280;19141;48.980;8.410;2023-04-12T08:24:55;98872.81;;;10.92;100.00
32789;BME280;19141;48.980;8.410;2023-04-12T08:27:20;98863.75;;;11.00;100.00
32789;BME280;19141;48.980;8.410;2023-04-12T08:29:45;98865.22;;;11.02;100.00
32789;BME280;19141;48.980;8.410;2023-04-12T08:32:11;98861.25;;;11.18;100.00
32789;BME280;19141;48.980;8.410;2023-04-12T08:34:37;98870.03;;;11.25;100.00
32789;BME280;19141;48.980;8.410;2023-04-12T08:37:03;98870.00;;;11.32;100.00
32789;BME280;19141;48.980;8.410;2023-04-12T08:39:30;98868.97;;;11.33;100.00
32789;BME280;19141;48.980;8.410;2023-04-12T08:41:56;98865.47;;;11.39;100.00
32789;BME280;19141;48.980;8.410;2023-04-12T08:44:33;98865.22;;;11.47;100.00
32789;BME280;19141;48.980;8.410;2023-04-12T08:47:00;98876.28;;;11.51;100.00
32789;BME280;19141;48.980;8.410;2023-04-12T08:49:25;98885.13;;;11.51;100.00
32789;BME280;19141;48.980;8.410;2023-04-12T08:51:52;98880.81;;;11.50;100.00
32789;BME280;19141;48.980;8.410;2023-04-12T08:54:19;98873.41;;;11.52;100.00
32789;BME280;19141;48.980;8.410;2023-04-12T08:56:45;98870.56;;;11.47;100.00
32789;BME280;19141;48.980;8.410;2023-04-12T08:59:12;98875.25;;;11.52;100.00
32789;BME280;19141;48.980;8.410;2023-04-12T09:01:40;98871.00;;;11.44;100.00
32789;BME280;19141;48.980;8.410;2023-04-12T09:04:06;98862.97;;;11.51;100.00
32789;BME280;19141;48.980;8.410;2023-04-12T09:06:32;98878.22;;;11.37;100.00
32789;BME280;19141;48.980;8.410;2023-04-12T09:08:58;98876.56;;;11.36;100.00
32789;BME280;19141;48.980;8.410;2023-04-12T09:11:27;98882.75;;;11.30;100.00
32789;BME280;19141;48.980;8.410;2023-04-12T09:13:54;98869.19;;;11.31;100.00
32789;BME280;19141;48.980;8.410;2023-04-12T09:16:40;98857.13;;;11.29;100.00
32789;BME280;19141;48.980;8.410;2023-04-12T09:19:06;98852.78;;;11.28;100.00
32789;BME280;19141;48.980;8.410;2023-04-12T09:21:33;98836.00;;;11.27;100.00
32789;BME280;19141;48.980;8.410;2023-04-12T09:24:08;98840.06;;;11.36;100.00
32789;BME280;19141;48.980;8.410;2023-04-12T09:26:35;98837.78;;;11.40;100.00
32789;BME280;19141;48.980;8.410;2023-04-12T09:29:02;98842.09;;;11.41;100.00
32789;BME280;19141;48.980;8.410;2023-04-12T09:31:27;98838.59;;;11.40;100.00
32789;BME280;19141;48.980;8.410;2023-04-12T09:34:05;98833.66;;;11.44;100.00
32789;BME280;19141;48.980;8.410;2023-04-12T09:36:40;98836.34;;;11.44;100.00
32789;BME280;19141;48.980;8.410;2023-04-12T09:39:06;98839.81;;;11.45;100.00
32789;BME280;19141;48.980;8.410;2023-04-12T09:41:32;98834.69;;;11.43;100.00
32789;BME280;19141;48.980;8.410;2023-04-12T09:43:58;98830.19;;;11.44;100.00
32789;BME280;19141;48.980;8.410;2023-04-12T09:46:24;98825.66;;;11.44;100.00
32789;BME280;19141;48.980;8.410;2023-04-12T09:48:52;98821.75;;;11.47;100.00
32789;BME280;19141;48.980;8.410;2023-04-12T09:51:31;98827.75;;;11.42;100.00
32789;BME280;19141;48.980;8.410;2023-04-12T09:54:01;98817.47;;;11.39;100.00
32789;BME280;19141;48.980;8.410;2023-04-12T09:56:31;98816.66;;;11.38;100.00
32789;BME280;19141;48.980;8.410;2023-04-12T09:59:03;98820.94;;;11.46;100.00
32789;BME280;19141;48.980;8.410;2023-04-12T10:01:36;98809.22;;;11.47;100.00
32789;BME280;19141;48.980;8.410;2023-04-12T10:04:08;98805.97;;;11.45;100.00
32789;BME280;19141;48.980;8.410;2023-04-12T10:06:34;98793.22;;;11.47;100.00
32789;BME280;19141;48.980;8.410;2023-04-12T10:09:02;98798.97;;;11.51;100.00
32789;BME280;19141;48.980;8.410;2023-04-12T10:11:28;98784.78;;;11.57;100.00
32789;BME280;19141;48.980;8.410;2023-04-12T10:13:58;98782.03;;;11.70;100.00
32789;BME280;19141;48.980;8.410;2023-04-12T10:16:25;98775.44;;;11.73;100.00
32789;BME280;19141;48.980;8.410;2023-04-12T10:18:51;98773.72;;;11.85;100.00
32789;BME280;19141;48.980;8.410;2023-04-12T10:21:18;98788.88;;;11.91;100.00
32789;BME280;19141;48.980;8.410;2023-04-12T10:23:44;98771.19;;;11.97;100.00
32789;BME280;19141;48.980;8.410;2023-04-12T10:26:14;98775.19;;;12.06;100.00
32789;BME280;19141;48.980;8.410;2023-04-12T10:28:40;98771.81;;;12.17;100.00
32789;BME280;19141;48.980;8.410;2023-04-12T10:31:27;98757.19;;;12.26;100.00
32789;BME280;19141;48.980;8.410;2023-04-12T10:34:00;98769.03;;;12.30;100.00
32789;BME280;19141;48.980;8.410;2023-04-12T10:36:49;98759.25;;;12.42;100.00
32789;BME280;19141;48.980;8.410;2023-04-12T10:39:15;98752.94;;;12.37;100.00
32789;BME280;19141;48.980;8.410;2023-04-12T10:44:41;98739.25;;;12.33;100.00
32789;BME280;19141;48.980;8.410;2023-04-12T10:47:07;98749.22;;;12.38;100.00
32789;BME280;19141;48.980;8.410;2023-04-12T10:49:34;98739.03;;;12.53;100.00
32789;BME280;19141;48.980;8.410;2023-04-12T10:56:54;98744.06;;;12.80;99.21
32789;BME280;19141;48.980;8.410;2023-04-12T11:02:15;98746.41;;;13.24;97.38
32789;BME280;19141;48.980;8.410;2023-04-12T11:05:04;98752.53;;;13.43;93.69
32789;BME280;19141;48.980;8.410;2023-04-12T11:07:52;98722.38;;;13.36;93.03
32789;BME280;19141;48.980;8.410;2023-04-12T11:10:37;98726.31;;;13.34;90.50
32789;BME280;19141;48.980;8.410;2023-04-12T11:13:05;98726.69;;;13.37;91.29
32789;BME280;19141;48.980;8.410;2023-04-12T11:15:32;98726.03;;;13.53;90.18
32789;BME280;19141;48.980;8.410;2023-04-12T11:17:58;98723.09;;;13.97;87.08
32789;BME280;19141;48.980;8.410;2023-04-12T11:20:25;98712.25;;;14.15;82.92
32789;BME280;19141;48.980;8.410;2023-04-12T11:22:52;98702.25;;;14.10;82.38
32789;BME280;19141;48.980;8.410;2023-04-12T11:25:20;98695.34;;;14.26;84.89
32789;BME280;19141;48.980;8.410;2023-04-12T11:27:50;98705.72;;;14.34;80.95
32789;BME280;19141;48.980;8.410;2023-04-12T11:30:16;98695.03;;;14.34;80.52
32789;BME280;19141;48.980;8.410;2023-04-12T11:32:43;98707.56;;;14.34;79.65
32789;BME280;19141;48.980;8.410;2023-04-12T11:35:09;98702.00;;;14.35;79.63
32789;BME280;19141;48.980;8.410;2023-04-12T11:37:36;98697.56;;;14.41;79.95
32789;BME280;19141;48.980;8.410;2023-04-12T11:40:03;98708.97;;;14.36;78.79
32789;BME280;19141;48.980;8.410;2023-04-12T11:42:33;98694.31;;;14.51;78.06
32789;BME280;19141;48.980;8.410;2023-04-12T11:44:59;98689.63;;;14.70;78.41
32789;BME280;19141;48.980;8.410;2023-04-12T11:47:25;98682.13;;;14.72;77.65
32789;BME280;19141;48.980;8.410;2023-04-12T11:49:54;98675.13;;;14.82;74.95
32789;BME280;19141;48.980;8.410;2023-04-12T11:52:24;98667.84;;;14.95;75.06
32789;BME280;19141;48.980;8.410;2023-04-12T11:54:52;98676.34;;;14.91;73.04
32789;BME280;19141;48.980;8.410;2023-04-12T11:57:20;98681.53;;;15.10;72.41
32789;BME280;19141;48.980;8.410;2023-04-12T11:59:47;98680.28;;;15.29;71.32
32789;BME280;19141;48.980;8.410;2023-04-12T12:02:14;98679.41;;;15.40;70.62
32789;BME280;19141;48.980;8.410;2023-04-12T12:04:42;98684.28;;;15.43;70.28
32789;BME280;19141;48.980;8.410;2023-04-12T12:07:07;98659.03;;;15.73;71.80
32789;BME280;19141;48.980;8.410;2023-04-12T12:09:34;98662.69;;;16.22;68.80
32789;BME280;19141;48.980;8.410;2023-04-12T12:12:00;98658.53;;;16.53;63.67
32789;BME280;19141;48.980;8.410;2023-04-12T12:14:26;98670.53;;;16.24;63.13
32789;BME280;19141;48.980;8.410;2023-04-12T12:16:53;98658.88;;;16.18;65.13
32789;BME280;19141;48.980;8.410;2023-04-12T12:19:45;98652.97;;;16.38;64.75
32789;BME280;19141;48.980;8.410;2023-04-12T12:22:21;98655.78;;;16.10;64.55
32789;BME280;19141;48.980;8.410;2023-04-12T12:24:50;98649.84;;;15.86;64.73
32789;BME280;19141;48.980;8.410;2023-04-12T12:27:23;98649.88;;;16.08;66.68
32789;BME280;19141;48.980;8.410;2023-04-12T12:29:50;98640.91;;;16.63;63.92
32789;BME280;19141;48.980;8.410;2023-04-12T12:32:18;98642.28;;;16.87;63.20
32789;BME280;19141;48.980;8.410;2023-04-12T12:34:55;98642.31;;;17.19;60.82
32789;BME280;19141;48.980;8.410;2023-04-12T12:37:28;98635.88;;;17.20;60.79
32789;BME280;19141;48.980;8.410;2023-04-12T12:42:50;98632.28;;;17.36;60.69
32789;BME280;19141;48.980;8.410;2023-04-12T12:45:17;98630.34;;;17.32;60.55
32789;BME280;19141;48.980;8.410;2023-04-12T12:47:53;98622.63;;;17.14;60.73
32789;BME280;19141;48.980;8.410;2023-04-12T12:50:24;98624.22;;;16.61;60.81
32789;BME280;19141;48.980;8.410;2023-04-12T12:52:50;98633.38;;;17.14;60.81
32789;BME280;19141;48.980;8.410;2023-04-12T12:55:16;98637.16;;;16.86;61.09
32789;BME280;19141;48.980;8.410;2023-04-12T12:57:44;98629.09;;;16.64;63.35
32789;BME280;19141;48.980;8.410;2023-04-12T13:00:14;98627.41;;;15.97;65.58
32789;BME280;19141;48.980;8.410;2023-04-12T13:02:40;98628.19;;;15.59;68.38
32789;BME280;19141;48.980;8.410;2023-04-12T13:05:06;98621.81;;;15.31;69.48
32789;BME280;19141;48.980;8.410;2023-04-12T13:07:32;98621.16;;;15.24;70.70
32789;BME280;19141;48.980;8.410;2023-04-12T13:09:58;98617.34;;;15.37;71.00
32789;BME280;19141;48.980;8.410;2023-04-12T13:12:24;98615.31;;;15.44;70.41
32789;BME280;19141;48.980;8.410;2023-04-12T13:14:49;98607.06;;;15.45;69.92
32789;BME280;19141;48.980;8.410;2023-04-12T13:17:15;98609.88;;;15.56;70.25
32789;BME280;19141;48.980;8.410;2023-04-12T13:19:40;98600.63;;;15.80;69.39
32789;BME280;19141;48.980;8.410;2023-04-12T13:22:06;98595.28;;;16.46;68.45
32789;BME280;19141;48.980;8.410;2023-04-12T13:24:33;98586.50;;;17.04;62.46
32789;BME280;19141;48.980;8.410;2023-04-12T13:26:59;98588.09;;;17.32;59.05
32789;BME280;19141;48.980;8.410;2023-04-12T13:29:24;98587.69;;;17.83;58.85
32789;BME280;19141;48.980;8.410;2023-04-12T13:31:50;98581.91;;;18.16;58.59
32789;BME280;19141;48.980;8.410;2023-04-12T13:34:15;98580.75;;;18.60;56.25
32789;BME280;19141;48.980;8.410;2023-04-12T13:36:41;98578.22;;;18.38;54.56
32789;BME280;19141;48.980;8.410;2023-04-12T13:39:06;98580.75;;;18.60;55.09
32789;BME280;19141;48.980;8.410;2023-04-12T13:41:32;98593.09;;;18.51;54.79
32789;BME280;19141;48.980;8.410;2023-04-12T13:43:58;98565.25;;;18.30;55.54
32789;BME280;19141;48.980;8.410;2023-04-12T13:46:24;98570.56;;;17.62;57.14
32789;BME280;19141;48.980;8.410;2023-04-12T13:48:49;98571.44;;;17.35;59.21
32789;BME280;19141;48.980;8.410;2023-04-12T13:51:16;98576.25;;;17.01;61.48
32789;BME280;19141;48.980;8.410;2023-04-12T13:53:42;98579.22;;;16.73;63.95
32789;BME280;19141;48.980;8.410;2023-04-12T13:56:08;98566.97;;;16.16;64.77
32789;BME280;19141;48.980;8.410;2023-04-12T13:58:34;98573.28;;;16.27;66.99
32789;BME280;19141;48.980;8.410;2023-04-12T14:01:00;98591.56;;;15.86;69.91
32789;BME280;19141;48.980;8.410;2023-04-12T14:03:26;98577.63;;;15.67;71.23
32789;BME280;19141;48.980;8.410;2023-04-12T14:05:51;98590.53;;;15.54;73.36
32789;BME280;19141;48.980;8.410;2023-04-12T14:08:17;98593.06;;;15.27;74.94
32789;BME280;19141;48.980;8.410;2023-04-12T14:10:42;98602.16;;;15.09;78.33
32789;BME280;19141;48.980;8.410;2023-04-12T14:13:07;98614.78;;;14.97;81.51
32789;BME280;19141;48.980;8.410;2023-04-12T14:15:33;98619.94;;;14.70;82.07
32789;BME280;19141;48.980;8.410;2023-04-12T14:17:58;98624.38;;;14.64;83.11
32789;BME280;19141;48.980;8.410;2023-04-12T14:20:23;98639.44;;;14.42;86.84
32789;BME280;19141;48.980;8.410;2023-04-12T14:22:49;98642.16;;;14.06;91.76
32789;BME280;19141;48.980;8.410;2023-04-12T14:25:14;98630.41;;;13.49;99.82
32789;BME280;19141;48.980;8.410;2023-04-12T14:27:40;98664.91;;;12.97;100.00
32789;BME280;19141;48.980;8.410;2023-04-12T14:30:06;98679.81;;;12.74;100.00
32789;BME280;19141;48.980;8.410;2023-04-12T14:32:32;98690.78;;;12.30;100.00
32789;BME280;19141;48.980;8.410;2023-04-12T14:34:57;98720.25;;;12.41;100.00
32789;BME280;19141;48.980;8.410;2023-04-12T14:37:23;98725.22;;;12.19;100.00
32789;BME280;19141;48.980;8.410;2023-04-12T14:39:49;98734.91;;;12.14;100.00
32789;BME280;19141;48.980;8.410;2023-04-12T14:42:14;98746.13;;;11.98;100.00
32789;BME280;19141;48.980;8.410;2023-04-12T14:44:40;98759.88;;;11.69;100.00
32789;BME280;19141;48.980;8.410;2023-04-12T14:47:05;98767.91;;;11.63;100.00
32789;BME280;19141;48.980;8.410;2023-04-12T14:49:31;98767.91;;;11.63;100.00
32789;BME280;19141;48.980;8.410;2023-04-12T14:51:56;98767.88;;;11.38;100.00
32789;BME280;19141;48.980;8.410;2023-04-12T14:54:21;98753.75;;;11.31;100.00
32789;BME280;19141;48.980;8.410;2023-04-12T14:56:47;98771.97;;;11.34;100.00
32789;BME280;19141;48.980;8.410;2023-04-12T14:59:13;98767.88;;;11.38;100.00
32789;BME280;19141;48.980;8.410;2023-04-12T15:01:40;98772.38;;;11.37;100.00
32789;BME280;19141;48.980;8.410;2023-04-12T15:04:05;98764.69;;;11.23;100.00
32789;BME280;19141;48.980;8.410;2023-04-12T15:06:31;98765.06;;;11.26;100.00
32789;BME280;19141;48.980;8.410;2023-04-12T15:09:00;98789.25;;;11.25;100.00
32789;BME280;19141;48.980;8.410;2023-04-12T15:11:26;98785.22;;;11.16;100.00
32789;BME280;19141;48.980;8.410;2023-04-12T15:13:51;98777.03;;;11.10;100.00
32789;BME280;19141;48.980;8.410;2023-04-12T15:16:18;98785.63;;;11.12;100.00
32789;BME280;19141;48.980;8.410;2023-04-12T15:18:43;98784.06;;;10.98;100.00
32789;BME280;19141;48.980;8.410;2023-04-12T15:21:09;98782.84;;;10.87;100.00
32789;BME280;19141;48.980;8.410;2023-04-12T15:23:38;98774.66;;;10.89;100.00
32789;BME280;19141;48.980;8.410;2023-04-12T15:26:03;98789.19;;;10.93;100.00
32789;BME280;19141;48.980;8.410;2023-04-12T15:28:38;98790.59;;;11.02;100.00
32789;BME280;19141;48.980;8.410;2023-04-12T15:31:04;98770.09;;;11.03;100.00
32789;BME280;19141;48.980;8.410;2023-04-12T15:33:30;98771.75;;;10.97;100.00
32789;BME280;19141;48.980;8.410;2023-04-12T15:36:02;98782.75;;;11.14;100.00
32789;BME280;19141;48.980;8.410;2023-04-12T15:38:28;98771.09;;;11.08;100.00
32789;BME280;19141;48.980;8.410;2023-04-12T15:40:56;98765.94;;;11.13;100.00
32789;BME280;19141;48.980;8.410;2023-04-12T15:43:22;98763.91;;;11.16;100.00
32789;BME280;19141;48.980;8.410;2023-04-12T15:45:48;98768.75;;;11.25;100.00
32789;BME280;19141;48.980;8.410;2023-04-12T15:48:17;98759.31;;;11.29;100.00
32789;BME280;19141;48.980;8.410;2023-04-12T15:50:42;98747.97;;;11.34;100.00
32789;BME280;19141;48.980;8.410;2023-04-12T15:53:07;98773.44;;;11.30;100.00
32789;BME280;19141;48.980;8.410;2023-04-12T15:55:33;98761.31;;;11.34;100.00
32789;BME280;19141;48.980;8.410;2023-04-12T15:57:58;98763.16;;;11.33;100.00
32789;BME280;19141;48.980;8.410;2023-04-12T16:00:24;98769.69;;;11.44;100.00
32789;BME280;19141;48.980;8.410;2023-04-12T16:02:52;98760.03;;;11.43;100.00
32789;BME280;19141;48.980;8.410;2023-04-12T16:05:20;98762.28;;;11.46;100.00
32789;BME280;19141;48.980;8.410;2023-04-12T16:07:45;98750.41;;;11.42;100.00
32789;BME280;19141;48.980;8.410;2023-04-12T16:10:18;98753.47;;;11.46;100.00
32789;BME280;19141;48.980;8.410;2023-04-12T16:12:50;98748.06;;;11.52;100.00
32789;BME280;19141;48.980;8.410;2023-04-12T16:15:17;98752.19;;;11.55;100.00
32789;BME280;19141;48.980;8.410;2023-04-12T16:17:44;98758.94;;;11.57;100.00
32789;BME280;19141;48.980;8.410;2023-04-12T16:20:11;98766.09;;;11.57;100.00
32789;BME280;19141;48.980;8.410;2023-04-12T16:22:39;98757.47;;;11.61;100.00
32789;BME280;19141;48.980;8.410;2023-04-12T16:25:05;98754.53;;;11.69;99.77
32789;BME280;19141;48.980;8.410;2023-04-12T16:27:30;98756.44;;;11.62;97.56
32789;BME280;19141;48.980;8.410;2023-04-12T16:29:58;98758.25;;;11.68;97.48
32789;BME280;19141;48.980;8.410;2023-04-12T16:32:23;98758.66;;;11.65;97.05
32789;BME280;19141;48.980;8.410;2023-04-12T16:34:49;98753.06;;;11.74;96.50
32789;BME280;19141;48.980;8.410;2023-04-12T16:37:15;98757.44;;;11.68;95.46
32789;BME280;19141;48.980;8.410;2023-04-12T16:39:44;98753.50;;;11.71;96.25
32789;BME280;19141;48.980;8.410;2023-04-12T16:42:09;98748.34;;;11.76;95.17
32789;BME280;19141;48.980;8.410;2023-04-12T16:44:35;98737.66;;;11.76;97.37
32789;BME280;19141;48.980;8.410;2023-04-12T16:47:00;98740.75;;;11.73;96.30
32789;BME280;19141;48.980;8.410;2023-04-12T16:49:25;98740.56;;;11.74;95.85
32789;BME280;19141;48.980;8.410;2023-04-12T16:51:51;98732.75;;;11.73;94.35
32789;BME280;19141;48.980;8.410;2023-04-12T16:54:17;98728.69;;;11.70;93.81
32789;BME280;19141;48.980;8.410;2023-04-12T16:56:43;98741.03;;;11.64;93.99
32789;BME280;19141;48.980;8.410;2023-04-12T16:59:08;98746.00;;;11.61;94.48
32789;BME280;19141;48.980;8.410;2023-04-12T17:01:34;98740.22;;;11.64;95.35
32789;BME280;19141;48.980;8.410;2023-04-12T17:03:59;98744.50;;;11.65;94.98
32789;BME280;19141;48.980;8.410;2023-04-12T17:06:25;98760.56;;;11.58;94.73
32789;BME280;19141;48.980;8.410;2023-04-12T17:08:54;98762.03;;;11.54;94.69
32789;BME280;19141;48.980;8.410;2023-04-12T17:11:20;98765.72;;;11.53;93.21
32789;BME280;19141;48.980;8.410;2023-04-12T17:13:46;98782.47;;;11.60;92.44
32789;BME280;19141;48.980;8.410;2023-04-12T17:16:11;98781.56;;;11.48;91.61
32789;BME280;19141;48.980;8.410;2023-04-12T17:18:40;98774.16;;;11.50;92.48
32789;BME280;19141;48.980;8.410;2023-04-12T17:21:07;98768.28;;;11.41;91.71
32789;BME280;19141;48.980;8.410;2023-04-12T17:23:33;98787.03;;;11.53;91.67
32789;BME280;19141;48.980;8.410;2023-04-12T17:26:01;98785.84;;;11.49;90.38
32789;BME280;19141;48.980;8.410;2023-04-12T17:28:26;98794.84;;;11.55;89.42
32789;BME280;19141;48.980;8.410;2023-04-12T17:30:54;98770.44;;;11.51;89.97